createdAt,value
2018-11-23T00:00:16.393Z,97.60
2018-11-23T00:02:45.893Z,97.70
2018-11-23T00:05:14.376Z,97.60
2018-11-23T00:07:43.316Z,97.40
2018-11-23T00:10:13.684Z,97.20
2018-11-23T00:12:42.233Z,97.40
2018-11-23T00:15:12.807Z,97.40
2018-11-23T00:17:41.379Z,97.40
2018-11-23T00:20:12.100Z,97.20
2018-11-23T00:22:40.580Z,97.40
2018-11-23T00:25:11.003Z,97.40
2018-11-23T00:27:39.872Z,97.40
2018-11-23T00:30:10.958Z,97.30
2018-11-23T00:32:39.722Z,97.30
2018-11-23T00:35:09.945Z,97.50
2018-11-23T00:37:38.453Z,97.50
2018-11-23T00:40:09.173Z,97.50
2018-11-23T00:42:37.656Z,97.00
2018-11-23T00:45:07.839Z,97.30
2018-11-23T00:47:36.285Z,97.50
2018-11-23T00:50:05.081Z,97.50
2018-11-23T00:52:33.496Z,97.50
2018-11-23T00:55:01.948Z,97.60
2018-11-23T00:57:30.349Z,97.70
2018-11-23T00:59:58.751Z,97.80
2018-11-23T01:02:27.208Z,97.90
2018-11-23T01:04:55.619Z,98.00
2018-11-23T01:07:24.077Z,98.00
2018-11-23T01:09:52.488Z,98.00
2018-11-23T01:12:20.926Z,97.90
2018-11-23T01:14:49.349Z,98.10
2018-11-23T01:17:17.772Z,98.60
2018-11-23T01:19:46.233Z,98.40
2018-11-23T01:22:14.647Z,98.50
2018-11-23T01:24:43.032Z,98.60
2018-11-23T01:27:11.448Z,98.50
2018-11-23T01:29:39.903Z,98.60
2018-11-23T01:32:08.307Z,98.60
2018-11-23T01:34:36.814Z,98.60
2018-11-23T01:37:05.248Z,98.50
2018-11-23T01:39:33.604Z,98.70
2018-11-23T01:42:01.998Z,98.60
2018-11-23T01:44:34.273Z,98.70
2018-11-23T01:47:02.672Z,98.60
2018-11-23T01:49:31.029Z,99.00
2018-11-23T01:51:59.408Z,98.80
2018-11-23T01:54:27.766Z,98.80
2018-11-23T01:56:56.144Z,98.80
2018-11-23T01:59:24.520Z,98.70
2018-11-23T02:01:52.906Z,99.00
2018-11-23T02:04:21.271Z,99.20
2018-11-23T02:06:49.652Z,99.40
2018-11-23T02:09:18.000Z,99.00
2018-11-23T02:11:46.376Z,98.80
2018-11-23T02:14:14.732Z,98.90
2018-11-23T02:16:43.110Z,98.90
2018-11-23T02:19:11.473Z,98.90
2018-11-23T02:21:39.819Z,98.80
2018-11-23T02:24:08.212Z,98.90
2018-11-23T02:26:36.600Z,98.70
2018-11-23T02:29:05.368Z,98.50
2018-11-23T02:31:33.824Z,98.60
2018-11-23T02:34:02.209Z,98.60
2018-11-23T02:36:30.575Z,98.30
2018-11-23T02:38:58.949Z,98.30
2018-11-23T02:41:27.361Z,98.10
2018-11-23T02:43:55.736Z,98.10
2018-11-23T02:46:24.104Z,98.20
2018-11-23T02:48:52.481Z,98.30
2018-11-23T02:51:20.843Z,98.30
2018-11-23T02:53:49.529Z,98.60
2018-11-23T02:56:18.090Z,98.20
2018-11-23T02:58:46.484Z,98.40
2018-11-23T03:01:14.840Z,98.30
2018-11-23T03:03:43.215Z,98.30
2018-11-23T03:06:11.576Z,98.40
2018-11-23T03:08:39.953Z,98.40
2018-11-23T03:11:08.313Z,98.80
2018-11-23T03:13:36.712Z,99.00
2018-11-23T03:16:05.113Z,98.90
2018-11-23T03:18:33.569Z,99.10
2018-11-23T03:21:01.937Z,99.20
2018-11-23T03:23:30.341Z,98.90
2018-11-23T03:25:58.709Z,98.90
2018-11-23T03:28:27.165Z,99.00
2018-11-23T03:30:55.522Z,99.00
2018-11-23T03:33:23.904Z,99.00
2018-11-23T03:35:52.297Z,99.10
2018-11-23T03:38:20.677Z,99.00
2018-11-23T03:40:49.037Z,99.00
2018-11-23T03:43:17.398Z,98.90
2018-11-23T03:45:45.764Z,99.00
2018-11-23T03:48:14.143Z,99.20
2018-11-23T03:50:42.554Z,99.00
2018-11-23T03:53:10.918Z,99.00
2018-11-23T03:55:39.321Z,98.90
2018-11-23T03:58:07.711Z,99.00
2018-11-23T04:00:36.063Z,98.70
2018-11-23T04:03:04.595Z,98.90
2018-11-23T04:05:33.020Z,99.00
2018-11-23T04:08:01.400Z,99.00
2018-11-23T04:10:29.819Z,99.00
2018-11-23T04:12:58.202Z,99.00
2018-11-23T04:15:26.567Z,99.10
2018-11-23T04:17:54.941Z,99.10
2018-11-23T04:20:23.297Z,99.00
2018-11-23T04:22:51.677Z,99.20
2018-11-23T04:25:20.045Z,99.20
2018-11-23T04:27:48.416Z,99.20
2018-11-23T04:30:17.584Z,98.90
2018-11-23T04:32:46.939Z,98.90
2018-11-23T04:35:16.628Z,98.90
2018-11-23T04:37:45.766Z,98.90
2018-11-23T04:40:14.780Z,98.90
2018-11-23T04:42:43.427Z,98.80
2018-11-23T04:45:12.105Z,98.80
2018-11-23T04:47:40.677Z,98.70
2018-11-23T04:50:10.716Z,98.70
2018-11-23T04:52:39.097Z,98.50
2018-11-23T04:55:08.177Z,98.50
2018-11-23T04:57:36.588Z,98.60
2018-11-23T05:00:06.684Z,98.50
2018-11-23T05:02:35.063Z,98.40
2018-11-23T05:05:03.449Z,98.50
2018-11-23T05:07:31.837Z,98.30
2018-11-23T05:10:00.199Z,98.20
2018-11-23T05:12:28.567Z,98.30
2018-11-23T05:14:56.961Z,98.20
2018-11-23T05:17:25.353Z,98.30
2018-11-23T05:19:53.732Z,98.20
2018-11-23T05:22:22.093Z,98.20
2018-11-23T05:24:50.477Z,98.20
2018-11-23T05:27:18.853Z,98.30
2018-11-23T05:29:47.265Z,98.20
2018-11-23T05:32:15.661Z,98.30
2018-11-23T05:34:44.087Z,98.30
2018-11-23T05:37:12.495Z,98.30
2018-11-23T05:39:40.923Z,98.40
2018-11-23T05:42:09.349Z,98.50
2018-11-23T05:44:37.777Z,98.50
2018-11-23T05:47:06.697Z,98.50
2018-11-23T05:49:35.103Z,98.40
2018-11-23T05:52:03.501Z,98.40
2018-11-23T05:54:31.928Z,98.30
2018-11-23T05:57:01.365Z,98.10
2018-11-23T05:59:29.949Z,97.90
2018-11-23T06:01:58.397Z,97.90
2018-11-23T06:04:26.808Z,98.00
2018-11-23T06:06:55.276Z,98.30
2018-11-23T06:09:23.700Z,98.60
2018-11-23T06:11:52.107Z,98.50
2018-11-23T06:14:20.528Z,98.50
2018-11-23T06:16:48.944Z,98.40
2018-11-23T06:19:17.355Z,98.50
2018-11-23T06:21:45.765Z,98.30
2018-11-23T06:24:14.175Z,98.50
2018-11-23T06:26:42.573Z,98.40
2018-11-23T06:29:10.992Z,98.60
2018-11-23T06:31:39.437Z,98.70
2018-11-23T06:34:07.881Z,98.50
2018-11-23T06:36:36.296Z,98.50
2018-11-23T06:39:06.419Z,98.50
2018-11-23T06:41:34.805Z,98.60
2018-11-23T06:44:03.221Z,98.90
2018-11-23T06:46:31.581Z,98.60
2018-11-23T06:48:59.952Z,98.60
2018-11-23T06:51:28.295Z,98.20
2018-11-23T06:53:56.672Z,98.30
2018-11-23T06:56:25.024Z,98.30
2018-11-23T06:58:53.421Z,98.30
2018-11-23T07:01:21.776Z,98.10
2018-11-23T07:03:50.176Z,97.80
2018-11-23T07:06:18.551Z,97.20
2018-11-23T07:08:52.363Z,97.70
2018-11-23T07:11:15.412Z,97.90
2018-11-23T07:13:43.769Z,97.80
2018-11-23T07:16:12.153Z,97.80
2018-11-23T07:18:40.526Z,97.70
2018-11-23T07:21:08.892Z,97.50
2018-11-23T07:23:37.256Z,97.50
2018-11-23T07:26:05.783Z,97.50
2018-11-23T07:28:34.143Z,98.00
2018-11-23T07:31:02.682Z,97.70
2018-11-23T07:33:30.917Z,97.50
2018-11-23T07:35:59.355Z,97.40
2018-11-23T07:38:27.816Z,97.50
2018-11-23T07:41:07.361Z,97.40
2018-11-23T07:43:35.774Z,97.30
2018-11-23T07:46:04.205Z,97.10
2018-11-23T07:48:32.622Z,97.10
2018-11-23T07:51:01.056Z,96.60
2018-11-23T07:53:29.457Z,96.60
2018-11-23T07:55:57.881Z,96.60
2018-11-23T07:58:26.289Z,96.20
2018-11-23T08:00:54.837Z,96.10
2018-11-23T08:03:23.242Z,96.00
2018-11-23T08:05:51.659Z,95.90
2018-11-23T08:08:20.056Z,95.90
2018-11-23T08:10:47.705Z,95.80
2018-11-23T08:13:16.097Z,95.80
2018-11-23T08:15:44.528Z,95.80
2018-11-23T08:18:12.929Z,95.60
2018-11-23T08:20:41.381Z,95.60
2018-11-23T08:23:09.789Z,95.50
2018-11-23T08:25:38.200Z,95.40
2018-11-23T08:28:06.620Z,95.20
2018-11-23T08:30:35.116Z,95.20
2018-11-23T08:33:03.556Z,95.00
2018-11-23T08:35:31.961Z,94.90
2018-11-23T08:38:00.326Z,94.80
2018-11-23T08:40:28.725Z,95.00
2018-11-23T08:42:57.504Z,94.70
2018-11-23T08:45:26.922Z,94.70
2018-11-23T08:47:55.286Z,94.50
2018-11-23T08:50:25.919Z,93.90
2018-11-23T08:52:54.425Z,93.80
2018-11-23T08:55:23.164Z,93.60
2018-11-23T08:57:51.528Z,93.30
2018-11-23T09:00:22.365Z,93.10
2018-11-23T09:02:52.236Z,93.10
2018-11-23T09:05:21.512Z,93.10
2018-11-23T09:07:51.037Z,93.00
2018-11-23T09:10:21.907Z,92.80
2018-11-23T09:12:51.889Z,92.50
2018-11-23T09:15:20.280Z,92.10
2018-11-23T09:17:48.861Z,92.10
2018-11-23T09:20:17.721Z,91.80
2018-11-23T09:22:46.103Z,91.60
2018-11-23T09:25:16.029Z,91.60
2018-11-23T09:27:44.461Z,91.70
2018-11-23T09:30:15.593Z,91.60
2018-11-23T09:32:44.447Z,91.30
2018-11-23T09:35:12.903Z,91.50
2018-11-23T09:37:41.732Z,91.20
2018-11-23T09:40:12.868Z,91.20
2018-11-23T09:42:41.556Z,91.00
2018-11-23T09:45:12.197Z,90.90
2018-11-23T09:47:40.634Z,91.00
2018-11-23T09:50:11.593Z,90.70
2018-11-23T09:52:40.287Z,90.80
2018-11-23T09:55:09.123Z,90.60
2018-11-23T09:57:37.864Z,90.40
2018-11-23T10:00:10.213Z,90.50
2018-11-23T10:02:39.139Z,90.90
2018-11-23T10:05:07.997Z,90.60
2018-11-23T10:07:36.416Z,90.80
2018-11-23T10:10:06.039Z,90.40
2018-11-23T10:12:34.508Z,90.10
2018-11-23T10:15:02.984Z,90.00
2018-11-23T10:17:31.396Z,89.80
2018-11-23T10:19:59.845Z,89.80
2018-11-23T10:22:28.266Z,89.30
2018-11-23T10:24:56.701Z,89.40
2018-11-23T10:27:25.175Z,88.60
2018-11-23T10:29:55.357Z,88.70
2018-11-23T10:32:22.090Z,88.60
2018-11-23T10:34:50.542Z,87.90
2018-11-23T10:37:18.985Z,87.90
2018-11-23T10:39:47.396Z,87.80
2018-11-23T10:42:15.838Z,87.70
2018-11-23T10:44:44.268Z,87.20
2018-11-23T10:47:12.717Z,87.40
2018-11-23T10:49:41.184Z,86.40
2018-11-23T10:52:09.661Z,87.10
2018-11-23T10:54:38.080Z,86.60
2018-11-23T10:57:06.862Z,86.50
2018-11-23T10:59:35.328Z,86.50
2018-11-23T11:02:08.030Z,86.60
2018-11-23T11:04:41.889Z,86.50
2018-11-23T11:07:10.732Z,85.50
2018-11-23T11:09:39.384Z,84.80
2018-11-23T11:12:07.828Z,84.70
2018-11-23T11:14:36.325Z,84.30
2018-11-23T11:17:04.815Z,84.20
2018-11-23T11:19:33.225Z,83.80
2018-11-23T11:22:01.640Z,83.30
2018-11-23T11:24:30.060Z,83.80
2018-11-23T11:26:58.513Z,83.40
2018-11-23T11:29:26.920Z,82.90
2018-11-23T11:31:55.360Z,82.70
2018-11-23T11:34:23.776Z,82.40
2018-11-23T11:36:52.225Z,82.30
2018-11-23T11:39:20.648Z,82.20
2018-11-23T11:41:49.067Z,82.20
2018-11-23T11:44:17.491Z,82.20
2018-11-23T11:46:45.908Z,82.20
2018-11-23T11:49:14.327Z,81.50
2018-11-23T11:51:42.745Z,81.20
2018-11-23T11:54:11.160Z,80.30
2018-11-23T11:56:39.568Z,80.50
2018-11-23T11:59:07.987Z,80.30
2018-11-23T12:01:36.509Z,80.40
2018-11-23T12:04:05.048Z,80.70
2018-11-23T12:06:33.459Z,79.90
2018-11-23T12:09:01.905Z,80.50
2018-11-23T12:11:30.320Z,79.50
2018-11-23T12:13:58.749Z,79.00
2018-11-23T12:16:27.164Z,78.70
2018-11-23T12:18:55.600Z,78.10
2018-11-23T12:21:24.012Z,77.60
2018-11-23T12:23:52.444Z,77.10
2018-11-23T12:26:20.869Z,76.90
2018-11-23T12:28:49.279Z,76.80
2018-11-23T12:31:17.714Z,76.70
2018-11-23T12:33:46.129Z,76.30
2018-11-23T12:36:14.515Z,76.30
2018-11-23T12:38:43.217Z,76.30
2018-11-23T12:41:11.296Z,76.80
2018-11-23T12:43:39.707Z,76.50
2018-11-23T12:46:08.117Z,77.10
2018-11-23T12:48:36.496Z,77.10
2018-11-23T12:51:05.013Z,76.40
2018-11-23T12:53:33.493Z,75.60
2018-11-23T12:56:01.935Z,76.10
2018-11-23T12:58:30.324Z,76.20
2018-11-23T13:00:58.715Z,75.70
2018-11-23T13:03:27.084Z,75.80
2018-11-23T13:05:55.479Z,75.60
2018-11-23T13:08:23.848Z,75.60
2018-11-23T13:10:52.261Z,75.50
2018-11-23T13:13:20.625Z,75.80
2018-11-23T13:15:49.160Z,76.00
2018-11-23T13:18:17.538Z,75.50
2018-11-23T13:20:45.930Z,75.70
2018-11-23T13:23:14.311Z,75.20
2018-11-23T13:25:42.721Z,75.50
2018-11-23T13:28:11.096Z,75.80
2018-11-23T13:30:39.512Z,75.10
2018-11-23T13:33:07.883Z,75.00
2018-11-23T13:35:36.304Z,74.90
2018-11-23T13:38:04.933Z,74.30
2018-11-23T13:40:33.336Z,74.10
2018-11-23T13:43:01.805Z,73.70
2018-11-23T13:45:32.672Z,73.70
2018-11-23T13:48:01.065Z,73.60
2018-11-23T13:50:29.689Z,73.60
2018-11-23T13:52:59.580Z,73.60
2018-11-23T13:55:27.993Z,73.60
2018-11-23T13:57:56.372Z,73.60
2018-11-23T14:00:27.913Z,73.70
2018-11-23T14:02:56.283Z,74.30
2018-11-23T14:05:26.161Z,74.60
2018-11-23T14:07:56.111Z,75.00
2018-11-23T14:10:25.601Z,75.10
2018-11-23T14:12:54.070Z,75.00
2018-11-23T14:15:24.609Z,74.60
2018-11-23T14:17:54.025Z,74.90
2018-11-23T14:20:23.341Z,74.70
2018-11-23T14:22:51.744Z,74.50
2018-11-23T14:25:21.545Z,74.20
2018-11-23T14:27:50.503Z,74.90
2018-11-23T14:30:21.621Z,74.80
2018-11-23T14:32:50.349Z,75.10
2018-11-23T14:35:20.300Z,75.10
2018-11-23T14:37:49.561Z,75.70
2018-11-23T14:40:18.029Z,76.30
2018-11-23T14:42:47.452Z,76.40
2018-11-23T14:45:18.476Z,76.40
2018-11-23T14:47:47.372Z,76.90
2018-11-23T14:50:18.127Z,77.80
2018-11-23T14:52:47.815Z,78.00
2018-11-23T14:55:16.529Z,77.70
2018-11-23T14:57:45.302Z,78.00
2018-11-23T15:00:19.213Z,78.00
2018-11-23T15:02:48.832Z,78.40
2018-11-23T15:05:17.712Z,78.70
2018-11-23T15:07:46.309Z,79.00
2018-11-23T15:10:16.001Z,79.50
2018-11-23T15:12:55.699Z,79.80
2018-11-23T15:15:26.205Z,80.00
2018-11-23T15:17:55.181Z,79.80
2018-11-23T15:20:40.669Z,80.90
2018-11-23T15:23:13.640Z,80.60
2018-11-23T15:25:42.095Z,80.80
2018-11-23T15:28:11.304Z,81.80
2018-11-23T15:30:40.572Z,81.70
2018-11-23T15:33:10.347Z,82.10
2018-11-23T15:35:39.343Z,82.60
2018-11-23T15:38:10.218Z,82.50
2018-11-23T15:40:37.711Z,83.30
2018-11-23T15:43:07.476Z,83.10
2018-11-23T15:45:36.308Z,83.70
2018-11-23T15:48:05.164Z,84.10
2018-11-23T15:50:34.921Z,84.30
2018-11-23T15:53:03.426Z,83.90
2018-11-23T15:55:33.124Z,84.40
2018-11-23T15:58:02.945Z,84.50
2018-11-23T16:00:35.713Z,85.10
2018-11-23T16:03:04.409Z,85.40
2018-11-23T16:05:32.839Z,85.30
2018-11-23T16:08:02.908Z,86.20
2018-11-23T16:10:38.232Z,86.20
2018-11-23T16:13:11.374Z,86.10
2018-11-23T16:15:36.668Z,86.60
2018-11-23T16:18:05.560Z,86.90
2018-11-23T16:20:36.337Z,87.50
2018-11-23T16:23:06.184Z,87.90
2018-11-23T16:25:34.753Z,87.70
2018-11-23T16:28:04.590Z,88.10
2018-11-23T16:30:37.357Z,88.80
2018-11-23T16:33:07.276Z,89.30
2018-11-23T16:35:36.873Z,89.40
2018-11-23T16:38:07.020Z,89.50
2018-11-23T16:40:36.909Z,89.70
2018-11-23T16:43:06.751Z,90.00
2018-11-23T16:45:35.913Z,90.10
2018-11-23T16:48:05.536Z,90.10
2018-11-23T16:50:33.984Z,90.20
2018-11-23T16:53:02.804Z,90.30
2018-11-23T16:55:31.331Z,90.30
2018-11-23T16:58:01.149Z,90.40
2018-11-23T17:00:30.706Z,90.50
2018-11-23T17:03:00.537Z,90.50
2018-11-23T17:05:30.420Z,90.30
2018-11-23T17:07:58.827Z,90.20
2018-11-23T17:10:27.241Z,90.20
2018-11-23T17:12:55.652Z,90.40
2018-11-23T17:15:25.478Z,90.60
2018-11-23T17:17:53.903Z,90.60
2018-11-23T17:20:25.596Z,90.70
2018-11-23T17:22:55.044Z,90.70
2018-11-23T17:25:24.308Z,90.70
2018-11-23T17:27:53.421Z,90.80
2018-11-23T17:30:24.040Z,90.80
2018-11-23T17:32:52.508Z,90.70
2018-11-23T17:35:21.118Z,91.00
2018-11-23T17:37:49.518Z,91.20
2018-11-23T17:40:19.456Z,91.20
2018-11-23T17:42:47.876Z,91.20
2018-11-23T17:45:20.013Z,91.20
2018-11-23T17:47:48.886Z,91.20
2018-11-23T17:50:18.656Z,91.10
2018-11-23T17:52:47.583Z,91.10
2018-11-23T17:55:16.059Z,91.10
2018-11-23T17:57:45.126Z,91.20
2018-11-23T18:00:16.312Z,91.30
2018-11-23T18:02:45.263Z,91.30
2018-11-23T18:05:14.892Z,91.60
2018-11-23T18:07:43.345Z,91.60
2018-11-23T18:10:14.113Z,91.80
2018-11-23T18:12:42.717Z,91.80
2018-11-23T18:15:14.171Z,91.90
2018-11-23T18:17:42.740Z,91.80
2018-11-23T18:20:14.935Z,91.90
2018-11-23T18:22:43.666Z,91.80
2018-11-23T18:25:14.297Z,92.00
2018-11-23T18:27:43.496Z,92.30
2018-11-23T18:30:12.684Z,92.40
2018-11-23T18:32:41.117Z,92.50
2018-11-23T18:35:11.049Z,92.60
2018-11-23T18:37:39.441Z,92.60
2018-11-23T18:40:11.296Z,92.90
2018-11-23T18:42:39.666Z,92.60
2018-11-23T18:45:11.326Z,92.70
2018-11-23T18:47:39.963Z,92.60
2018-11-23T18:50:10.052Z,92.60
2018-11-23T18:52:38.417Z,92.70
2018-11-23T18:55:07.411Z,92.80
2018-11-23T18:57:35.783Z,92.80
2018-11-23T19:00:04.265Z,92.70
2018-11-23T19:02:32.651Z,92.80
2018-11-23T19:05:01.050Z,92.90
2018-11-23T19:07:29.419Z,93.00
2018-11-23T19:09:57.828Z,92.90
2018-11-23T19:12:26.224Z,93.00
2018-11-23T19:14:54.625Z,93.00
2018-11-23T19:17:23.020Z,93.10
2018-11-23T19:19:51.444Z,93.20
2018-11-23T19:22:19.825Z,93.00
2018-11-23T19:24:48.226Z,93.10
2018-11-23T19:27:16.614Z,93.10
2018-11-23T19:29:45.009Z,92.90
2018-11-23T19:32:13.437Z,93.00
2018-11-23T19:34:41.832Z,93.10
2018-11-23T19:37:10.194Z,93.20
2018-11-23T19:39:38.578Z,93.30
2018-11-23T19:42:07.000Z,93.50
2018-11-23T19:44:35.447Z,93.60
2018-11-23T19:47:03.855Z,93.80
2018-11-23T19:49:32.244Z,93.90
2018-11-23T19:52:00.616Z,94.10
2018-11-23T19:54:29.005Z,94.20
2018-11-23T19:56:57.380Z,94.30
2018-11-23T19:59:25.781Z,94.30
2018-11-23T20:01:54.160Z,94.30
2018-11-23T20:04:22.595Z,94.30
2018-11-23T20:06:50.949Z,94.30
2018-11-23T20:09:19.341Z,94.30
2018-11-23T20:11:47.775Z,94.60
2018-11-23T20:14:16.164Z,94.30
2018-11-23T20:16:44.540Z,94.30
2018-11-23T20:19:12.933Z,94.30
2018-11-23T20:21:41.306Z,94.30
2018-11-23T20:24:09.709Z,94.30
2018-11-23T20:26:38.084Z,94.50
2018-11-23T20:29:06.567Z,94.40
2018-11-23T20:31:34.932Z,94.70
2018-11-23T20:34:03.339Z,94.40
2018-11-23T20:36:31.733Z,94.40
2018-11-23T20:39:00.128Z,94.70
2018-11-23T20:41:28.515Z,94.70
2018-11-23T20:43:56.914Z,94.80
2018-11-23T20:46:25.300Z,94.80
2018-11-23T20:48:53.706Z,94.70
2018-11-23T20:51:22.101Z,94.90
2018-11-23T20:53:50.542Z,94.70
2018-11-23T20:56:18.946Z,94.70
2018-11-23T20:58:47.313Z,94.70
2018-11-23T21:01:15.718Z,94.60
2018-11-23T21:03:44.093Z,94.60
2018-11-23T21:06:12.483Z,94.40
2018-11-23T21:08:40.901Z,94.40
2018-11-23T21:11:09.296Z,94.40
2018-11-23T21:13:37.669Z,94.70
2018-11-23T21:16:06.184Z,94.50
2018-11-23T21:18:34.563Z,94.70
2018-11-23T21:21:02.986Z,94.80
2018-11-23T21:23:31.368Z,94.90
2018-11-23T21:25:59.789Z,94.60
2018-11-23T21:28:28.190Z,94.50
2018-11-23T21:30:56.666Z,94.40
2018-11-23T21:33:25.066Z,94.50
2018-11-23T21:35:53.500Z,94.60
2018-11-23T21:38:21.876Z,94.40
2018-11-23T21:40:50.329Z,94.40
2018-11-23T21:43:18.717Z,94.40
2018-11-23T21:45:47.178Z,94.40
2018-11-23T21:48:15.580Z,94.60
2018-11-23T21:50:44.139Z,94.50
2018-11-23T21:53:12.521Z,94.60
2018-11-23T21:55:40.912Z,94.40
2018-11-23T21:58:09.297Z,94.30
2018-11-23T22:00:37.730Z,94.30
2018-11-23T22:03:06.145Z,94.30
2018-11-23T22:05:34.648Z,94.40
2018-11-23T22:08:03.065Z,94.30
2018-11-23T22:10:31.461Z,94.30
2018-11-23T22:12:59.871Z,94.30
2018-11-23T22:15:28.266Z,94.40
2018-11-23T22:17:57.338Z,94.30
2018-11-23T22:20:26.123Z,94.30
2018-11-23T22:22:54.538Z,94.20
2018-11-23T22:25:23.610Z,94.20
2018-11-23T22:27:52.044Z,94.30
2018-11-23T22:30:26.817Z,94.00
2018-11-23T22:32:55.193Z,93.90
2018-11-23T22:35:23.638Z,94.20
2018-11-23T22:37:52.033Z,94.20
2018-11-23T22:40:21.076Z,94.40
2018-11-23T22:42:51.609Z,94.30
2018-11-23T22:45:20.092Z,94.30
2018-11-23T22:47:48.549Z,94.30
2018-11-23T22:50:18.775Z,94.30
2018-11-23T22:52:47.818Z,94.30
2018-11-23T22:55:16.380Z,94.20
2018-11-23T22:57:44.774Z,94.10
2018-11-23T23:00:27.429Z,94.30
2018-11-23T23:02:55.792Z,94.30
2018-11-23T23:05:24.570Z,94.30
2018-11-23T23:07:52.939Z,94.30
2018-11-23T23:10:21.336Z,94.30
2018-11-23T23:12:49.718Z,94.60
2018-11-23T23:15:18.131Z,94.40
2018-11-23T23:17:46.549Z,94.40
2018-11-23T23:20:16.419Z,94.30
2018-11-23T23:22:44.808Z,94.30
2018-11-23T23:25:13.517Z,94.30
2018-11-23T23:27:41.917Z,94.30
2018-11-23T23:30:12.313Z,94.30
2018-11-23T23:32:40.749Z,94.40
2018-11-23T23:35:10.193Z,94.40
2018-11-23T23:37:38.720Z,94.40
2018-11-23T23:40:08.777Z,94.40
2018-11-23T23:42:37.192Z,94.40
2018-11-23T23:45:13.945Z,94.40
2018-11-23T23:47:42.322Z,94.10
2018-11-23T23:50:12.813Z,94.20
2018-11-23T23:52:41.196Z,94.40
2018-11-23T23:55:10.220Z,94.40
2018-11-23T23:57:39.528Z,94.30
